OMSJ/SHJ METAR and TAF weather

Enter ICAO airport designator
Station Type Date Time Source
OMSJ METAR 2019/05/25 09:00 UTC NOAA

OMSJ 250900Z 31010KT CAVOK 37/16 Q1008


Station Type Date Time Source
OMSJ Decoded METAR 2019/05/25 09:00 UTC NOAA

Sharjah International Airport, United Arab Emirates (OMSJ) 25-20N 055-31E 33M
May 25, 2019 - 05:00 AM EDT / 2019.05.25 0900 UTC
Wind: from the NW (310 degrees) at 12 MPH (10 KT):0
Visibility: greater than 7 mile(s):0
Temperature: 98 F (37 C)
Heat index: 98.1 F (36.7 C):1
Dew Point: 60 F (16 C)
Relative Humidity: 28%
Pressure (altimeter): 29.77 in. Hg (1008 hPa)
ob: OMSJ 250900Z 31010KT CAVOK 37/16 Q1008
cycle: 9

Station Type Date Time Source
OMSJ TAF 2019/05/25 06:03 UTC NOAA

TAF OMSJ 250452Z 2506/2612 07005KT CAVOK
BECMG 2508/2510 34013KT
BECMG 2515/2517 08005KT
BECMG 2608/2610 34016KT

Example: see airport list